createdAt,value
2023-05-06T00:00:00.172Z,92913.00
2023-05-06T00:01:00.184Z,92913.00
2023-05-06T00:02:00.181Z,92913.00
2023-05-06T00:03:00.280Z,92913.00
2023-05-06T00:04:00.312Z,92915.00
2023-05-06T00:05:00.248Z,92915.00
2023-05-06T00:06:00.215Z,92915.00
2023-05-06T00:07:00.226Z,92915.00
2023-05-06T00:08:00.303Z,92911.00
2023-05-06T00:09:00.371Z,92909.00
2023-05-06T00:10:00.458Z,92907.00
2023-05-06T00:11:00.523Z,92901.00
2023-05-06T00:12:00.595Z,92899.00
2023-05-06T00:13:00.711Z,92895.00
2023-05-06T00:14:00.744Z,92893.00
2023-05-06T00:15:01.236Z,92895.00
2023-05-06T00:16:00.919Z,92893.00
2023-05-06T00:17:00.870Z,92895.00
2023-05-06T00:18:00.951Z,92895.00
2023-05-06T00:19:00.993Z,92895.00
2023-05-06T00:20:00.941Z,92897.00
2023-05-06T00:21:00.979Z,92895.00
2023-05-06T00:22:00.967Z,92895.00
2023-05-06T00:23:01.028Z,92893.00
2023-05-06T00:24:01.019Z,92895.00
2023-05-06T00:25:01.057Z,92893.00
2023-05-06T00:26:01.071Z,92895.00
2023-05-06T00:27:01.087Z,92895.00
2023-05-06T00:28:01.114Z,92895.00
2023-05-06T00:29:01.113Z,92893.00
2023-05-06T00:30:01.223Z,92887.00
2023-05-06T00:31:01.392Z,92891.00
2023-05-06T00:32:01.262Z,92889.00
2023-05-06T00:33:01.247Z,92887.00
2023-05-06T00:34:01.231Z,92883.00
2023-05-06T00:35:01.248Z,92881.00
2023-05-06T00:36:01.287Z,92883.00
2023-05-06T00:37:01.288Z,92883.00
2023-05-06T00:38:01.313Z,92879.00
2023-05-06T00:39:01.337Z,92881.00
2023-05-06T00:40:01.368Z,92883.00
2023-05-06T00:41:01.370Z,92885.00
2023-05-06T00:42:01.410Z,92887.00
2023-05-06T00:43:01.418Z,92885.00
2023-05-06T00:44:01.438Z,92881.00
2023-05-06T00:45:01.466Z,92879.00
2023-05-06T00:46:01.568Z,92878.00
2023-05-06T00:47:01.567Z,92878.00
2023-05-06T00:48:01.658Z,92876.00
2023-05-06T00:49:01.541Z,92876.00
2023-05-06T00:50:01.564Z,92876.00
2023-05-06T00:51:01.591Z,92876.00
2023-05-06T00:52:01.635Z,92878.00
2023-05-06T00:53:01.629Z,92878.00
2023-05-06T00:54:01.656Z,92879.00
2023-05-06T00:55:01.670Z,92878.00
2023-05-06T00:56:01.687Z,92878.00
2023-05-06T00:57:01.715Z,92874.00
2023-05-06T00:58:01.777Z,92876.00
2023-05-06T00:59:01.753Z,92876.00
2023-05-06T01:00:01.773Z,92874.00
2023-05-06T01:01:01.949Z,92872.00
2023-05-06T01:02:01.839Z,92874.00
2023-05-06T01:03:02.045Z,92872.00
2023-05-06T01:04:01.894Z,92872.00
2023-05-06T01:05:01.944Z,92874.00
2023-05-06T01:06:01.926Z,92870.00
2023-05-06T01:07:01.948Z,92870.00
2023-05-06T01:08:01.978Z,92870.00
2023-05-06T01:09:02.013Z,92870.00
2023-05-06T01:10:02.046Z,92870.00
2023-05-06T01:11:02.059Z,92870.00
2023-05-06T01:12:02.087Z,92870.00
2023-05-06T01:13:02.144Z,92872.00
2023-05-06T01:14:02.143Z,92870.00
2023-05-06T01:15:02.171Z,92872.00
2023-05-06T01:16:02.187Z,92870.00
2023-05-06T01:17:02.290Z,92872.00
2023-05-06T01:18:02.324Z,92870.00
2023-05-06T01:19:02.317Z,92870.00
2023-05-06T01:20:02.292Z,92870.00
2023-05-06T01:21:02.321Z,92870.00
2023-05-06T01:22:02.348Z,92868.00
2023-05-06T01:23:02.469Z,92866.00
2023-05-06T01:24:02.394Z,92868.00
2023-05-06T01:25:02.423Z,92864.00
2023-05-06T01:26:02.450Z,92862.00
2023-05-06T01:27:02.470Z,92862.00
2023-05-06T01:28:02.511Z,92862.00
2023-05-06T01:29:02.529Z,92862.00
2023-05-06T01:30:02.558Z,92862.00
2023-05-06T01:31:02.621Z,92860.00
2023-05-06T01:32:02.597Z,92860.00
2023-05-06T01:33:02.682Z,92860.00
2023-05-06T01:34:02.648Z,92860.00
2023-05-06T01:35:02.741Z,92858.00
2023-05-06T01:36:02.706Z,92858.00
2023-05-06T01:37:02.723Z,92858.00
2023-05-06T01:38:02.749Z,92858.00
2023-05-06T01:39:02.779Z,92856.00
2023-05-06T01:40:02.811Z,92860.00
2023-05-06T01:41:02.864Z,92860.00
2023-05-06T01:42:02.886Z,92860.00
2023-05-06T01:43:02.902Z,92860.00
2023-05-06T01:44:02.912Z,92860.00
2023-05-06T01:45:02.932Z,92862.00
2023-05-06T01:46:02.980Z,92862.00
2023-05-06T01:47:02.992Z,92862.00
2023-05-06T01:48:03.097Z,92862.00
2023-05-06T01:49:03.051Z,92862.00
2023-05-06T01:50:03.073Z,92862.00
2023-05-06T01:51:03.172Z,92862.00
2023-05-06T01:52:03.136Z,92858.00
2023-05-06T01:53:03.168Z,92856.00
2023-05-06T01:54:03.187Z,92852.00
2023-05-06T01:55:03.197Z,92852.00
2023-05-06T01:56:03.220Z,92852.00
2023-05-06T01:57:03.245Z,92856.00
2023-05-06T01:58:03.284Z,92858.00
2023-05-06T01:59:03.322Z,92856.00
2023-05-06T02:00:03.333Z,92860.00
2023-05-06T02:01:03.360Z,92856.00
2023-05-06T02:02:03.473Z,92856.00
2023-05-06T02:03:03.598Z,92856.00
2023-05-06T02:04:03.592Z,92858.00
2023-05-06T02:05:03.454Z,92856.00
2023-05-06T02:06:03.501Z,92858.00
2023-05-06T02:07:03.508Z,92860.00
2023-05-06T02:08:03.524Z,92856.00
2023-05-06T02:09:03.557Z,92860.00
2023-05-06T02:10:03.579Z,92860.00
2023-05-06T02:11:03.605Z,92862.00
2023-05-06T02:12:03.653Z,92858.00
2023-05-06T02:13:03.681Z,92858.00
2023-05-06T02:14:03.702Z,92856.00
2023-05-06T02:15:03.784Z,92852.00
2023-05-06T02:16:03.790Z,92850.00
2023-05-06T02:17:03.765Z,92848.00
2023-05-06T02:18:03.866Z,92846.00
2023-05-06T02:19:03.820Z,92842.00
2023-05-06T02:20:03.838Z,92844.00
2023-05-06T02:21:03.869Z,92846.00
2023-05-06T02:22:03.895Z,92846.00
2023-05-06T02:23:03.991Z,92848.00
2023-05-06T02:24:03.997Z,92848.00
2023-05-06T02:25:04.082Z,92848.00
2023-05-06T02:26:04.021Z,92846.00
2023-05-06T02:27:04.057Z,92842.00
2023-05-06T02:28:04.081Z,92844.00
2023-05-06T02:29:04.089Z,92840.00
2023-05-06T02:30:04.128Z,92842.00
2023-05-06T02:31:04.152Z,92840.00
2023-05-06T02:32:04.171Z,92844.00
2023-05-06T02:33:04.257Z,92840.00
2023-05-06T02:34:04.230Z,92842.00
2023-05-06T02:35:04.249Z,92836.00
2023-05-06T02:36:04.290Z,92836.00
2023-05-06T02:37:04.325Z,92836.00
2023-05-06T02:38:04.356Z,92834.00
2023-05-06T02:39:04.544Z,92832.00
2023-05-06T02:40:04.414Z,92825.00
2023-05-06T02:41:04.437Z,92825.00
2023-05-06T02:42:04.476Z,92823.00
2023-05-06T02:43:04.561Z,92823.00
2023-05-06T02:44:04.529Z,92821.00
2023-05-06T02:45:04.564Z,92825.00
2023-05-06T02:46:04.648Z,92825.00
2023-05-06T02:47:04.627Z,92832.00
2023-05-06T02:48:04.689Z,92834.00
2023-05-06T02:49:04.678Z,92825.00
2023-05-06T02:50:04.706Z,92825.00
2023-05-06T02:51:04.736Z,92823.00
2023-05-06T02:52:04.771Z,92821.00
2023-05-06T02:53:04.811Z,92821.00
2023-05-06T02:54:04.817Z,92819.00
2023-05-06T02:55:04.851Z,92819.00
2023-05-06T02:56:04.888Z,92815.00
2023-05-06T02:57:04.903Z,92813.00
2023-05-06T02:58:04.934Z,92813.00
2023-05-06T02:59:04.953Z,92813.00
2023-05-06T03:00:04.990Z,92815.00
2023-05-06T03:01:05.046Z,92813.00
2023-05-06T03:02:05.029Z,92811.00
2023-05-06T03:03:05.139Z,92813.00
2023-05-06T03:04:05.145Z,92811.00
2023-05-06T03:05:05.128Z,92811.00
2023-05-06T03:06:05.152Z,92811.00
2023-05-06T03:07:05.178Z,92811.00
2023-05-06T03:08:05.204Z,92811.00
2023-05-06T03:09:05.241Z,92813.00
2023-05-06T03:10:05.291Z,92813.00
2023-05-06T03:11:06.749Z,92813.00
2023-05-06T03:12:05.430Z,92813.00
2023-05-06T03:13:05.514Z,92815.00
2023-05-06T03:14:05.488Z,92815.00
2023-05-06T03:15:05.516Z,92815.00
2023-05-06T03:16:05.630Z,92819.00
2023-05-06T03:17:05.587Z,92813.00
2023-05-06T03:18:05.937Z,92813.00
2023-05-06T03:19:05.640Z,92815.00
2023-05-06T03:20:05.669Z,92815.00
2023-05-06T03:21:05.712Z,92815.00
2023-05-06T03:22:05.720Z,92815.00
2023-05-06T03:23:05.758Z,92817.00
2023-05-06T03:24:05.789Z,92817.00
2023-05-06T03:25:05.817Z,92819.00
2023-05-06T03:26:05.878Z,92821.00
2023-05-06T03:27:06.002Z,92823.00
2023-05-06T03:28:05.908Z,92825.00
2023-05-06T03:29:05.974Z,92825.00
2023-05-06T03:30:05.963Z,92832.00
2023-05-06T03:31:06.015Z,92834.00
2023-05-06T03:32:06.025Z,92836.00
2023-05-06T03:33:06.114Z,92838.00
2023-05-06T03:34:06.099Z,92842.00
2023-05-06T03:35:06.129Z,92842.00
2023-05-06T03:36:06.191Z,92844.00
2023-05-06T03:37:06.184Z,92848.00
2023-05-06T03:38:06.212Z,92850.00
2023-05-06T03:39:06.241Z,92856.00
2023-05-06T03:40:06.283Z,92856.00
2023-05-06T03:41:06.295Z,92858.00
2023-05-06T03:42:07.875Z,92858.00
2023-05-06T03:43:06.385Z,92856.00
2023-05-06T03:44:06.340Z,92858.00
2023-05-06T03:45:06.324Z,92856.00
2023-05-06T03:46:06.375Z,92858.00
2023-05-06T03:47:06.306Z,92858.00
2023-05-06T03:48:06.374Z,92858.00
2023-05-06T03:49:06.295Z,92860.00
2023-05-06T03:50:06.323Z,92858.00
2023-05-06T03:51:06.282Z,92858.00
2023-05-06T03:52:06.284Z,92856.00
2023-05-06T03:53:06.287Z,92854.00
2023-05-06T03:54:06.273Z,92854.00
2023-05-06T03:55:06.300Z,92848.00
2023-05-06T03:56:06.278Z,92848.00
2023-05-06T03:57:06.271Z,92846.00
2023-05-06T03:58:06.283Z,92850.00
2023-05-06T03:59:06.420Z,92852.00
2023-05-06T04:00:06.282Z,92856.00
2023-05-06T04:01:06.338Z,92858.00
2023-05-06T04:02:06.316Z,92856.00
2023-05-06T04:03:06.387Z,92856.00
2023-05-06T04:04:06.328Z,92856.00
2023-05-06T04:05:06.291Z,92854.00
2023-05-06T04:06:06.288Z,92854.00
2023-05-06T04:07:06.305Z,92854.00
2023-05-06T04:08:06.299Z,92854.00
2023-05-06T04:09:06.355Z,92854.00
2023-05-06T04:10:06.301Z,92852.00
2023-05-06T04:11:06.319Z,92856.00
2023-05-06T04:12:06.328Z,92856.00
2023-05-06T04:13:06.331Z,92860.00
2023-05-06T04:14:06.307Z,92860.00
2023-05-06T04:15:06.358Z,92858.00
2023-05-06T04:16:06.320Z,92860.00
2023-05-06T04:17:06.307Z,92862.00
2023-05-06T04:18:06.323Z,92858.00
2023-05-06T04:19:06.622Z,92866.00
2023-05-06T04:20:06.313Z,92862.00
2023-05-06T04:21:06.309Z,92866.00
2023-05-06T04:22:06.315Z,92872.00
2023-05-06T04:23:06.333Z,92872.00
2023-05-06T04:24:06.326Z,92876.00
2023-05-06T04:25:06.331Z,92874.00
2023-05-06T04:26:06.344Z,92874.00
2023-05-06T04:27:06.341Z,92870.00
2023-05-06T04:28:06.367Z,92874.00
2023-05-06T04:29:06.370Z,92872.00
2023-05-06T04:30:06.356Z,92868.00
2023-05-06T04:31:06.435Z,92870.00
2023-05-06T04:32:06.404Z,92870.00
2023-05-06T04:33:06.413Z,92864.00
2023-05-06T04:34:06.410Z,92866.00
2023-05-06T04:35:06.396Z,92864.00
2023-05-06T04:36:06.404Z,92866.00
2023-05-06T04:37:06.409Z,92868.00
2023-05-06T04:38:06.414Z,92870.00
2023-05-06T04:39:06.420Z,92870.00
2023-05-06T04:40:06.427Z,92868.00
2023-05-06T04:41:06.452Z,92870.00
2023-05-06T04:42:06.443Z,92872.00
2023-05-06T04:43:06.456Z,92874.00
2023-05-06T04:44:06.447Z,92874.00
2023-05-06T04:45:06.483Z,92874.00
2023-05-06T04:46:06.480Z,92874.00
2023-05-06T04:47:06.626Z,92874.00
2023-05-06T04:48:06.501Z,92876.00
2023-05-06T04:49:06.455Z,92876.00
2023-05-06T04:50:06.478Z,92878.00
2023-05-06T04:51:06.519Z,92881.00
2023-05-06T04:52:06.486Z,92881.00
2023-05-06T04:53:06.541Z,92881.00
2023-05-06T04:54:06.472Z,92881.00
2023-05-06T04:55:06.468Z,92878.00
2023-05-06T04:56:06.451Z,92878.00
2023-05-06T04:57:06.451Z,92876.00
2023-05-06T04:58:06.462Z,92876.00
2023-05-06T04:59:06.450Z,92874.00
2023-05-06T05:00:06.516Z,92878.00
2023-05-06T05:01:06.529Z,92876.00
2023-05-06T05:02:06.591Z,92878.00
2023-05-06T05:03:06.654Z,92878.00
2023-05-06T05:04:06.548Z,92878.00
2023-05-06T05:05:06.590Z,92879.00
2023-05-06T05:06:06.609Z,92878.00
2023-05-06T05:07:06.652Z,92881.00
2023-05-06T05:08:06.697Z,92879.00
2023-05-06T05:09:06.754Z,92879.00
2023-05-06T05:10:06.761Z,92883.00
2023-05-06T05:11:06.789Z,92883.00
2023-05-06T05:12:06.830Z,92887.00
2023-05-06T05:13:06.919Z,92883.00
2023-05-06T05:14:06.898Z,92885.00
2023-05-06T05:15:07.027Z,92883.00
2023-05-06T05:16:06.954Z,92885.00
2023-05-06T05:17:07.143Z,92883.00
2023-05-06T05:18:07.070Z,92883.00
2023-05-06T05:19:09.098Z,92883.00
2023-05-06T05:20:07.110Z,92883.00
2023-05-06T05:21:07.130Z,92881.00
2023-05-06T05:22:07.161Z,92883.00
2023-05-06T05:23:07.199Z,92881.00
2023-05-06T05:24:07.232Z,92881.00
2023-05-06T05:25:08.396Z,92879.00
2023-05-06T05:26:07.291Z,92881.00
2023-05-06T05:27:07.327Z,92881.00
2023-05-06T05:28:07.408Z,92881.00
2023-05-06T05:29:07.402Z,92879.00
2023-05-06T05:30:07.448Z,92878.00
2023-05-06T05:31:09.742Z,92881.00
2023-05-06T05:32:07.472Z,92879.00
2023-05-06T05:33:07.533Z,92878.00
2023-05-06T05:34:07.459Z,92878.00
2023-05-06T05:35:09.510Z,92878.00
2023-05-06T05:36:07.456Z,92874.00
2023-05-06T05:37:07.465Z,92872.00
2023-05-06T05:38:08.399Z,92874.00
2023-05-06T05:39:07.473Z,92872.00
2023-05-06T05:40:07.484Z,92870.00
2023-05-06T05:41:07.472Z,92872.00
2023-05-06T05:42:07.485Z,92870.00
2023-05-06T05:43:07.482Z,92870.00
2023-05-06T05:44:07.477Z,92870.00
2023-05-06T05:45:07.582Z,92872.00
2023-05-06T05:46:07.497Z,92872.00
2023-05-06T05:47:07.469Z,92870.00
2023-05-06T05:48:07.558Z,92872.00
2023-05-06T05:49:07.506Z,92868.00
2023-05-06T05:50:07.624Z,92870.00
2023-05-06T05:51:07.639Z,92866.00
2023-05-06T05:52:07.620Z,92868.00
2023-05-06T05:53:07.657Z,92868.00
2023-05-06T05:54:07.698Z,92864.00
2023-05-06T05:55:07.992Z,92864.00
2023-05-06T05:56:07.744Z,92866.00
2023-05-06T05:57:07.769Z,92866.00
2023-05-06T05:58:07.810Z,92862.00
2023-05-06T05:59:07.842Z,92860.00
2023-05-06T06:00:07.870Z,92858.00
2023-05-06T06:01:07.904Z,92862.00
2023-05-06T06:02:07.934Z,92864.00
2023-05-06T06:03:08.077Z,92866.00
2023-05-06T06:04:08.121Z,92866.00
2023-05-06T06:05:08.120Z,92864.00
2023-05-06T06:06:08.066Z,92866.00
2023-05-06T06:07:08.157Z,92860.00
2023-05-06T06:08:08.133Z,92862.00
2023-05-06T06:09:08.173Z,92864.00
2023-05-06T06:10:08.208Z,92860.00
2023-05-06T06:11:08.225Z,92860.00
2023-05-06T06:12:08.265Z,92860.00
2023-05-06T06:13:08.332Z,92860.00
2023-05-06T06:14:08.318Z,92858.00
2023-05-06T06:15:08.631Z,92856.00
2023-05-06T06:16:08.424Z,92856.00
2023-05-06T06:17:08.438Z,92854.00
2023-05-06T06:18:08.519Z,92852.00
2023-05-06T06:19:08.513Z,92852.00
2023-05-06T06:20:08.551Z,92850.00
2023-05-06T06:21:08.583Z,92850.00
2023-05-06T06:22:08.629Z,92850.00
2023-05-06T06:23:08.720Z,92850.00
2023-05-06T06:24:08.734Z,92854.00
2023-05-06T06:25:08.941Z,92850.00
2023-05-06T06:26:10.455Z,92850.00
2023-05-06T06:27:08.766Z,92852.00
2023-05-06T06:28:08.776Z,92854.00
2023-05-06T06:29:08.772Z,92852.00
2023-05-06T06:30:08.806Z,92852.00
2023-05-06T06:31:08.792Z,92850.00
2023-05-06T06:32:08.808Z,92850.00
2023-05-06T06:33:08.796Z,92850.00
2023-05-06T06:34:08.783Z,92848.00
2023-05-06T06:35:08.966Z,92852.00
2023-05-06T06:36:08.784Z,92848.00
2023-05-06T06:37:08.776Z,92850.00
2023-05-06T06:38:08.778Z,92848.00
2023-05-06T06:39:08.771Z,92846.00
2023-05-06T06:40:08.773Z,92848.00
2023-05-06T06:41:08.772Z,92844.00
2023-05-06T06:42:08.766Z,92844.00
2023-05-06T06:43:08.767Z,92844.00
2023-05-06T06:44:08.763Z,92844.00
2023-05-06T06:45:08.889Z,92844.00
2023-05-06T06:46:08.796Z,92844.00
2023-05-06T06:47:08.761Z,92842.00
2023-05-06T06:48:08.809Z,92840.00
2023-05-06T06:49:08.769Z,92840.00
2023-05-06T06:50:08.783Z,92840.00
2023-05-06T06:51:08.772Z,92840.00
2023-05-06T06:52:08.772Z,92838.00
2023-05-06T06:53:08.797Z,92838.00
2023-05-06T06:54:08.793Z,92838.00
2023-05-06T06:55:08.916Z,92840.00
2023-05-06T06:56:08.797Z,92836.00
2023-05-06T06:57:08.799Z,92838.00
2023-05-06T06:58:08.798Z,92840.00
2023-05-06T06:59:08.808Z,92836.00
2023-05-06T07:00:08.809Z,92836.00
2023-05-06T07:01:08.853Z,92836.00
2023-05-06T07:02:08.791Z,92834.00
2023-05-06T07:03:08.855Z,92834.00
2023-05-06T07:04:08.829Z,92834.00
2023-05-06T07:05:08.996Z,92836.00
2023-05-06T07:06:08.832Z,92834.00
2023-05-06T07:07:08.816Z,92838.00
2023-05-06T07:08:08.811Z,92836.00
2023-05-06T07:09:08.830Z,92834.00
2023-05-06T07:10:08.833Z,92836.00
2023-05-06T07:11:08.960Z,92832.00
2023-05-06T07:12:08.835Z,92832.00
2023-05-06T07:13:08.865Z,92825.00
2023-05-06T07:14:08.858Z,92825.00
2023-05-06T07:15:09.303Z,92823.00
2023-05-06T07:16:08.891Z,92823.00
2023-05-06T07:17:08.915Z,92823.00
2023-05-06T07:18:08.926Z,92823.00
2023-05-06T07:19:08.896Z,92823.00
2023-05-06T07:20:08.914Z,92823.00
2023-05-06T07:21:08.907Z,92821.00
2023-05-06T07:22:08.909Z,92823.00
2023-05-06T07:23:08.930Z,92819.00
2023-05-06T07:24:08.934Z,92821.00
2023-05-06T07:25:09.113Z,92819.00
2023-05-06T07:26:08.943Z,92821.00
2023-05-06T07:27:09.090Z,92821.00
2023-05-06T07:28:08.977Z,92823.00
2023-05-06T07:29:08.961Z,92823.00
2023-05-06T07:30:08.979Z,92821.00
2023-05-06T07:31:09.048Z,92825.00
2023-05-06T07:32:09.064Z,92821.00
2023-05-06T07:33:08.989Z,92823.00
2023-05-06T07:34:08.979Z,92821.00
2023-05-06T07:35:09.116Z,92821.00
2023-05-06T07:36:08.993Z,92821.00
2023-05-06T07:37:09.001Z,92821.00
2023-05-06T07:38:09.023Z,92821.00
2023-05-06T07:39:09.019Z,92821.00
2023-05-06T07:40:09.028Z,92823.00
2023-05-06T07:41:09.059Z,92823.00
2023-05-06T07:42:09.028Z,92825.00
2023-05-06T07:43:09.085Z,92832.00
2023-05-06T07:44:09.027Z,92832.00
2023-05-06T07:45:09.201Z,92836.00
2023-05-06T07:46:09.096Z,92840.00
2023-05-06T07:47:09.142Z,92842.00
2023-05-06T07:48:09.078Z,92844.00
2023-05-06T07:49:09.069Z,92846.00
2023-05-06T07:50:09.090Z,92846.00
2023-05-06T07:51:09.072Z,92846.00
2023-05-06T07:52:09.071Z,92846.00
2023-05-06T07:53:09.078Z,92850.00
2023-05-06T07:54:09.068Z,92850.00
2023-05-06T07:55:09.325Z,92852.00
2023-05-06T07:56:09.080Z,92852.00
2023-05-06T07:57:09.086Z,92854.00
2023-05-06T07:58:09.082Z,92856.00
2023-05-06T07:59:09.087Z,92854.00
2023-05-06T08:00:09.094Z,92856.00
2023-05-06T08:01:09.097Z,92858.00
2023-05-06T08:02:09.117Z,92858.00
2023-05-06T08:03:09.158Z,92858.00
2023-05-06T08:04:09.190Z,92858.00
2023-05-06T08:05:09.430Z,92860.00
2023-05-06T08:06:09.128Z,92860.00
2023-05-06T08:07:09.138Z,92860.00
2023-05-06T08:08:09.149Z,92860.00
2023-05-06T08:09:10.149Z,92862.00
2023-05-06T08:10:09.172Z,92864.00
2023-05-06T08:11:09.174Z,92864.00
2023-05-06T08:12:09.191Z,92866.00
2023-05-06T08:13:09.221Z,92864.00
2023-05-06T08:14:09.207Z,92866.00
2023-05-06T08:15:09.595Z,92862.00
2023-05-06T08:16:09.305Z,92864.00
2023-05-06T08:17:09.242Z,92860.00
2023-05-06T08:18:20.889Z,92860.00
2023-05-06T08:19:10.255Z,92860.00
2023-05-06T08:20:09.275Z,92858.00
2023-05-06T08:21:09.988Z,92858.00
2023-05-06T08:22:09.264Z,92860.00
2023-05-06T08:23:09.280Z,92860.00
2023-05-06T08:24:09.278Z,92860.00
2023-05-06T08:25:09.681Z,92860.00
2023-05-06T08:26:09.300Z,92860.00
2023-05-06T08:27:09.304Z,92856.00
2023-05-06T08:28:09.308Z,92856.00
2023-05-06T08:29:09.325Z,92856.00
2023-05-06T08:30:09.331Z,92858.00
2023-05-06T08:31:09.433Z,92856.00
2023-05-06T08:32:09.423Z,92856.00
2023-05-06T08:33:09.392Z,92858.00
2023-05-06T08:34:09.356Z,92858.00
2023-05-06T08:35:09.710Z,92856.00
2023-05-06T08:36:09.374Z,92860.00
2023-05-06T08:37:09.390Z,92858.00
2023-05-06T08:38:09.395Z,92862.00
2023-05-06T08:39:09.401Z,92860.00
2023-05-06T08:40:09.417Z,92860.00
2023-05-06T08:41:09.420Z,92860.00
2023-05-06T08:42:09.433Z,92858.00
2023-05-06T08:43:09.452Z,92858.00
2023-05-06T08:44:09.444Z,92854.00
2023-05-06T08:45:09.537Z,92858.00
2023-05-06T08:46:09.554Z,92858.00
2023-05-06T08:47:09.582Z,92856.00
2023-05-06T08:48:09.458Z,92854.00
2023-05-06T08:49:09.477Z,92858.00
2023-05-06T08:50:09.462Z,92854.00
2023-05-06T08:51:09.468Z,92858.00
2023-05-06T08:52:09.489Z,92854.00
2023-05-06T08:53:09.536Z,92854.00
2023-05-06T08:54:09.555Z,92852.00
2023-05-06T08:55:09.888Z,92850.00
2023-05-06T08:56:09.582Z,92846.00
2023-05-06T08:57:12.428Z,92846.00
2023-05-06T08:58:09.613Z,92844.00
2023-05-06T08:59:09.697Z,92844.00
2023-05-06T09:00:09.634Z,92842.00
2023-05-06T09:01:09.761Z,92842.00
2023-05-06T09:02:09.703Z,92838.00
2023-05-06T09:03:09.853Z,92838.00
2023-05-06T09:04:09.669Z,92838.00
2023-05-06T09:05:09.930Z,92838.00
2023-05-06T09:06:09.706Z,92838.00
2023-05-06T09:07:09.695Z,92836.00
2023-05-06T09:08:09.714Z,92836.00
2023-05-06T09:09:09.716Z,92834.00
2023-05-06T09:10:09.875Z,92834.00
2023-05-06T09:11:09.714Z,92832.00
2023-05-06T09:12:09.714Z,92825.00
2023-05-06T09:13:09.744Z,92825.00
2023-05-06T09:14:09.730Z,92832.00
2023-05-06T09:15:09.831Z,92832.00
2023-05-06T09:16:09.758Z,92825.00
2023-05-06T09:17:09.792Z,92825.00
2023-05-06T09:18:09.821Z,92825.00
2023-05-06T09:19:09.824Z,92821.00
2023-05-06T09:20:09.759Z,92821.00
2023-05-06T09:21:09.753Z,92819.00
2023-05-06T09:22:09.773Z,92817.00
2023-05-06T09:23:09.767Z,92821.00
2023-05-06T09:24:09.768Z,92819.00
2023-05-06T09:25:09.964Z,92819.00
2023-05-06T09:26:09.782Z,92823.00
2023-05-06T09:27:10.630Z,92821.00
2023-05-06T09:28:09.789Z,92821.00
2023-05-06T09:29:09.800Z,92819.00
2023-05-06T09:30:09.794Z,92817.00
2023-05-06T09:31:09.822Z,92817.00
2023-05-06T09:32:09.803Z,92819.00
2023-05-06T09:33:09.990Z,92819.00
2023-05-06T09:34:09.828Z,92819.00
2023-05-06T09:35:10.138Z,92815.00
2023-05-06T09:36:09.833Z,92817.00
2023-05-06T09:37:09.849Z,92817.00
2023-05-06T09:38:09.859Z,92817.00
2023-05-06T09:39:09.960Z,92819.00
2023-05-06T09:40:09.860Z,92815.00
2023-05-06T09:41:09.868Z,92819.00
2023-05-06T09:42:09.865Z,92811.00
2023-05-06T09:43:09.877Z,92813.00
2023-05-06T09:44:09.882Z,92813.00
2023-05-06T09:45:10.212Z,92811.00
2023-05-06T09:46:09.890Z,92807.00
2023-05-06T09:47:09.897Z,92805.00
2023-05-06T09:48:10.019Z,92803.00
2023-05-06T09:49:09.907Z,92805.00
2023-05-06T09:50:09.942Z,92807.00
2023-05-06T09:51:09.995Z,92805.00
2023-05-06T09:52:09.919Z,92805.00
2023-05-06T09:53:09.950Z,92803.00
2023-05-06T09:54:09.937Z,92805.00
2023-05-06T09:55:10.234Z,92801.00
2023-05-06T09:56:09.915Z,92805.00
2023-05-06T09:57:09.916Z,92801.00
2023-05-06T09:58:09.925Z,92803.00
2023-05-06T09:59:09.930Z,92799.00
2023-05-06T10:00:09.920Z,92801.00
2023-05-06T10:01:09.991Z,92797.00
2023-05-06T10:02:09.986Z,92795.00
2023-05-06T10:03:10.006Z,92795.00
2023-05-06T10:04:10.344Z,92793.00
2023-05-06T10:05:10.889Z,92791.00
2023-05-06T10:06:09.955Z,92791.00
2023-05-06T10:07:10.024Z,92789.00
2023-05-06T10:08:09.976Z,92787.00
2023-05-06T10:09:09.984Z,92789.00
2023-05-06T10:10:09.993Z,92787.00
2023-05-06T10:11:09.998Z,92787.00
2023-05-06T10:12:10.012Z,92786.00
2023-05-06T10:13:10.070Z,92789.00
2023-05-06T10:14:10.089Z,92786.00
2023-05-06T10:15:10.254Z,92784.00
2023-05-06T10:16:10.099Z,92787.00
2023-05-06T10:17:10.065Z,92786.00
2023-05-06T10:18:10.138Z,92782.00
2023-05-06T10:19:10.095Z,92784.00
2023-05-06T10:20:10.102Z,92778.00
2023-05-06T10:21:10.102Z,92782.00
2023-05-06T10:22:10.095Z,92778.00
2023-05-06T10:23:10.186Z,92778.00
2023-05-06T10:24:10.121Z,92774.00
2023-05-06T10:25:10.370Z,92770.00
2023-05-06T10:26:10.123Z,92772.00
2023-05-06T10:27:10.129Z,92766.00
2023-05-06T10:28:16.331Z,92770.00
2023-05-06T10:29:11.154Z,92766.00
2023-05-06T10:30:10.173Z,92766.00
2023-05-06T10:31:10.195Z,92766.00
2023-05-06T10:32:10.174Z,92764.00
2023-05-06T10:33:10.180Z,92764.00
2023-05-06T10:34:10.192Z,92764.00
2023-05-06T10:35:10.354Z,92764.00
2023-05-06T10:36:10.205Z,92760.00
2023-05-06T10:37:10.218Z,92758.00
2023-05-06T10:38:10.204Z,92758.00
2023-05-06T10:39:10.276Z,92756.00
2023-05-06T10:40:10.205Z,92752.00
2023-05-06T10:41:10.202Z,92754.00
2023-05-06T10:42:10.210Z,92750.00
2023-05-06T10:43:10.210Z,92748.00
2023-05-06T10:44:10.275Z,92748.00
2023-05-06T10:45:10.329Z,92744.00
2023-05-06T10:46:10.321Z,92744.00
2023-05-06T10:47:10.225Z,92744.00
2023-05-06T10:48:10.224Z,92742.00
2023-05-06T10:49:10.227Z,92742.00
2023-05-06T10:50:10.261Z,92738.00
2023-05-06T10:51:10.241Z,92736.00
2023-05-06T10:52:10.257Z,92735.00
2023-05-06T10:53:10.257Z,92736.00
2023-05-06T10:54:10.257Z,92733.00
2023-05-06T10:55:10.508Z,92731.00
2023-05-06T10:56:10.279Z,92729.00
2023-05-06T10:57:10.281Z,92729.00
2023-05-06T10:58:10.319Z,92725.00
2023-05-06T10:59:10.323Z,92723.00
2023-05-06T11:00:10.348Z,92717.00
2023-05-06T11:01:10.391Z,92715.00
2023-05-06T11:02:10.353Z,92715.00
2023-05-06T11:03:10.374Z,92711.00
2023-05-06T11:04:10.340Z,92709.00
2023-05-06T11:05:10.454Z,92707.00
2023-05-06T11:06:10.328Z,92707.00
2023-05-06T11:07:10.335Z,92703.00
2023-05-06T11:08:10.343Z,92701.00
2023-05-06T11:09:10.352Z,92695.00
2023-05-06T11:10:10.364Z,92699.00
2023-05-06T11:11:10.377Z,92695.00
2023-05-06T11:12:10.370Z,92695.00
2023-05-06T11:13:10.401Z,92691.00
2023-05-06T11:14:10.356Z,92689.00
2023-05-06T11:15:10.572Z,92691.00
2023-05-06T11:16:10.401Z,92689.00
2023-05-06T11:17:10.420Z,92689.00
2023-05-06T11:18:10.409Z,92687.00
2023-05-06T11:19:10.420Z,92687.00
2023-05-06T11:20:10.671Z,92687.00
2023-05-06T11:21:10.461Z,92684.00
2023-05-06T11:22:10.462Z,92680.00
2023-05-06T11:23:10.466Z,92680.00
2023-05-06T11:24:10.480Z,92678.00
2023-05-06T11:25:10.507Z,92676.00
2023-05-06T11:26:10.521Z,92676.00
2023-05-06T11:27:10.646Z,92676.00
2023-05-06T11:28:10.520Z,92676.00
2023-05-06T11:29:10.540Z,92674.00
2023-05-06T11:30:10.731Z,92674.00
2023-05-06T11:31:10.627Z,92670.00
2023-05-06T11:32:10.556Z,92674.00
2023-05-06T11:33:10.661Z,92674.00
2023-05-06T11:34:10.592Z,92674.00
2023-05-06T11:35:10.594Z,92670.00
2023-05-06T11:36:10.599Z,92666.00
2023-05-06T11:37:10.638Z,92670.00
2023-05-06T11:38:10.665Z,92668.00
2023-05-06T11:39:10.625Z,92666.00
2023-05-06T11:40:10.925Z,92666.00
2023-05-06T11:41:10.650Z,92666.00
2023-05-06T11:42:10.653Z,92664.00
2023-05-06T11:43:10.734Z,92664.00
2023-05-06T11:44:11.650Z,92662.00